GDT weather

JAGS McCartney International Airport
Cockburn Town, Grand Turk , Turks and Caicos Islands

Public forecast

Using degrees Celsius for public forecast. Weather courtesy of forecast.io.

Current aviation weather report (METAR) for JAGS McCartney International Airport

Retrieved 2019/11/15 19:00 UTC (17 minutes ago):

MBGT 151900Z 10007KT 9999 BKN020TCU 29/22 Q1012

Aviation forecast (TAF) for JAGS McCartney International Airport

Forecast is more than 12 hours old.

Retrieved 2019/09/12 00:28 UTC (2 months ago):

TAF MBGT 112240Z 1200/1224 08015G30KT 3200 +TSRA BKN012CB OVC018 FM121000 15015G25KT 6000 SHRA SCT015CB BKN018 BKN060